TAF Text Data
IDs:
Format:
Raw Decoded Include METAR

Data at: 1153 UTC 16 Oct 2018

KTYS 161053Z 32004KT 10SM FEW007 SCT023 OVC030 14/13 A3021 RMK AO2 SLP221 T01390128

KTYS 161121Z 1612/1712 35008KT P6SM OVC030
  FM161900 31006KT P6SM VCSH OVC020
  FM170000 01005KT 5SM BR OVC025
  FM170600 01003KT 4SM BR BKN035


KGSO 161101Z 04005KT 10SM SCT033 OVC050 19/17 A3013 RMK AO2 T01890172 $

KGSO 161134Z 1612/1712 04004KT P6SM SCT015 BKN035
  TEMPO 1612/1615 BKN015
  FM161500 07005KT P6SM OVC040
  FM170000 VRB03KT P6SM -RA OVC015
  FM170200 VRB02KT 4SM -SHRA BR OVC007
  TEMPO 1703/1707 2SM -SHRA OVC003
  FM171100 34003KT 6SM BR OVC050


KCLT 161052Z 00000KT 8SM BKN250 19/19 A3013 RMK AO2 SLP196 T01890189

KCLT 161141Z 1612/1718 29003KT P6SM BKN200
  FM161400 02004KT P6SM BKN050
  FM161900 VRB03KT P6SM BKN060
  TEMPO 1620/1624 5SM -TSRA OVC025CB
  FM170000 05004KT P6SM -SHRA BKN040
  FM170600 VRB03KT 4SM BR VCSH OVC010


KRDU 161122Z 00000KT 10SM SCT011 BKN045 BKN060 BKN250 20/19 A3012 RMK AO2 T02000189

KRDU 161134Z 1612/1712 04004KT P6SM SCT015 BKN035
  TEMPO 1612/1615 BKN015
  FM161500 07005KT P6SM OVC040
  FM170200 VRB02KT 4SM -SHRA BR OVC015
  FM170300 VRB03KT 4SM -SHRA BR OVC007
  TEMPO 1704/1708 2SM -SHRA OVC003


KPOB 161142Z AUTO 28003KT 10SM FEW006 BKN055 OVC100 21/20 A3012 RMK AO2 SLP201 $

TAF AMD KPOB 161028Z 1610/1715 VRB03KT 6000 BR SCT007 SCT055 QNH3006INS
  TEMPO 1610/1614 1600 BR OVC007
  BECMG 1614/1615 03006KT 8000 -RA BKN015 OVC040 QNH3003INS
  BECMG 1618/1619 03006KT 9999 NSW BKN015 OVC040 QNH3004INS
  BECMG 1623/1624 04009KT 6000 -SHRA VCTS SCT012 BKN015CB OVC040 QNH3004INS
  TEMPO 1701/1704 26010G15KT 3200 -TSRA BKN012CB
  BECMG 1705/1706 03006KT 6000 -RA BR BKN010 OVC030 QNH3003INS TX26/1619Z TN19/1709Z


KFBG 161146Z AUTO 00000KT 10SM BKN004 BKN060 BKN100 20/20 A3012 RMK AO2 CIG 004V095 BKN004 V SCT SLP201 $

TAF AMD KFBG 161028Z 1610/1715 VRB03KT 6000 BR SCT007 QNH3006INS
  TEMPO 1610/1614 1600 BR OVC007
  BECMG 1614/1615 03006KT 8000 -RA BKN015 OVC040 QNH3003INS
  BECMG 1618/1619 03006KT 9999 NSW BKN015 OVC040 QNH3004INS
  BECMG 1623/1624 04009KT 6000 -SHRA VCTS SCT012 BKN015CB OVC040 QNH3004INS
  TEMPO 1701/1704 26010G15KT 3200 -TSRA BKN012CB
  BECMG 1705/1706 03006KT 6000 -RA BR BKN010 OVC030 QNH3003INS TX26/1619Z TN19/1709Z


KFAY 161144Z 00000KT 6SM BR SCT003 SCT060 OVC095 20/19 A3012 RMK AO2 T02000189

KFAY 161134Z 1612/1712 VRB02KT 4SM BR OVC015
  TEMPO 1612/1615 1SM BR OVC004
  FM161700 04004KT P6SM OVC050
  FM170200 VRB03KT 4SM -SHRA BR OVC015
  FM170400 05002KT 4SM -SHRA BR OVC008
  TEMPO 1704/1708 2SM -SHRA OVC003


KRWI 161106Z AUTO 00000KT 10SM BKN011 21/21 A3011 RMK AO2 T02110206

KRWI 161134Z 1612/1712 04004KT P6SM SCT015 BKN035
  TEMPO 1612/1615 BKN015
  FM161500 07005KT P6SM OVC040
  FM170300 VRB02KT P6SM OVC015
  FM170400 VRB03KT 4SM -SHRA BR OVC007
  TEMPO 1705/1709 2SM -SHRA OVC003


KISO 161056Z 20003KT 5SM BR SCT044 19/19 A3011

KISO 161138Z 1612/1712 00000KT P6SM BKN090
  FM161400 36004KT P6SM VCSH BKN020
  FM170400 VRB03KT P6SM OVC008
  FM170600 00000KT 3SM RA BKN003 AMD LTD TO CLD VIS AND WIND


KGWW 161140Z AUTO 25003KT 7SM CLR 20/20 A3012 RMK AO2 T02000200


KGSB 161056Z AUTO 21004KT 10SM CLR 20/20 A3008 RMK AO2 SLP188 T02030198 $

TAF AMD KGSB 160450Z 1604/1710 21006KT 9999 SKC QNH3010INS
  BECMG 1609/1610 24006KT 4800 BR SCT030 BKN050 QNH3008INS
  BECMG 1613/1614 28009KT 9000 -SHRA SCT012 BKN035 QNH3005INS
  TEMPO 1614/1618 6000 -SHRA BKN012
  BECMG 1619/1620 01012KT 9999 NSW BKN012 QNH3006INS
  BECMG 1700/1701 06006KT 9000 BR BKN007 QNH3003INS
  BECMG 1702/1703 07006KT 9000 -SHRA BR BKN012 QNH3007INS TX26/1620Z TN16/1704Z


KDPL 161135Z AUTO 00000KT 5SM BR CLR 18/18 A3012 RMK AO2


KCTZ 161140Z AUTO 00000KT 5SM CLR 19/19 A3013 RMK AO2 T01940194


KORF 161051Z 01014G21KT 10SM -RA OVC023 19/16 A3011 RMK AO2 RAE0954B26 SLP195 P0000 T01940156

KORF 161120Z 1612/1712 01012G20KT P6SM VCSH BKN020 OVC050
  FM161600 03010KT P6SM VCSH BKN030
  FM161800 04008KT P6SM BKN040
  FM170100 VRB03KT P6SM OVC030
  FM170400 VRB03KT 6SM -RA OVC010


KLFI 161056Z AUTO 01007KT 10SM FEW042 SCT050 OVC075 19/16 A3011 RMK AO2 SLP203 T01910156

TAF AMD KLFI 160920Z 1609/1715 29009KT 8000 -SHRA BKN020 OVC035 QNH3003INS
  BECMG 1614/1615 35012KT 9999 NSW BKN025 QNH3010INS
  BECMG 1705/1706 33010G15KT 8000 -SHRA BKN010 OVC015 QNH3002INS
  BECMG 1714/1715 30012KT 9999 NSW SCT020 QNH3005INS TX23/1609Z TN16/1621Z


KNTU 161056Z 01008KT 10SM -RA FEW017 OVC023 19/16 A3010 RMK AO2 RAB08 SLP197 P0003 T01890161

TAF KNTU 1607/1707 22010KT 9999 FEW020 BKN030 OVC080 QNH3001INS
  FM160900 35012G22KT 8000 BR VCSH FEW020 BKN030 OVC050 QNH3003INS
  TEMPO 1609/1615 4800 SHRA BR SCT015 BKN020 OVC040
  FM161500 03009G18KT 9999 FEW065 FEW300 QNH3010INS
  FM161900 05010KT 9999 BKN040 QNH3003INS
  FM170200 VRB05KT 8000 BR SCT005 BKN012 BKN030 QNH3012INS T16/1610Z T17/1619Z FN00170


KECG 161132Z 27005KT 10SM SCT021 BKN026 BKN042 21/20 A3010 RMK AO2 T02110200

KECG 161120Z 1612/1712 34010KT P6SM -SHRA BKN030 BKN080
  FM161400 01011KT P6SM VCSH BKN030 OVC060
  FM161600 02012KT P6SM BKN040
  FM170100 07004KT P6SM OVC030
  FM170400 VRB03KT 6SM -RA OVC010


KEWN 161054Z 00000KT 5SM BR CLR 21/21 A3012 RMK AO2 SLP199 T02060206

KEWN 161138Z 1612/1712 00000KT P6SM BKN250
  FM161500 36006KT P6SM VCSH BKN025
  FM170300 VRB03KT P6SM OVC008
  FM170600 VRB03KT 3SM RA OVC003


KNKT 161054Z 29003KT 9SM CLR 22/22 A3012 RMK AO2 SLP195 T02170217

TAF KNKT 1609/1709 20005KT 9999 SKC QNH3006INS
  FM161400 VRB05KT 9999 SCT020 BKN060 OVC150 QNH2999INS
  TEMPO 1615/1621 4800 SHRA BR SCT002 BKN020 OVC060
  TEMPO 1702/1708 24014G35KT 1600 -TSRA BR SCT002 BKN015CB OVC060 T26/1615Z T20/1704Z


KILM 161053Z 34003KT 10SM SCT018 SCT025 21/19 A3010 RMK AO2 SLP193 T02060194

KILM 161133Z 1612/1712 33004KT P6SM SKC
  FM161400 31005KT P6SM BKN035 BKN080
  FM162000 12005KT P6SM VCSH BKN035 BKN080
  FM171000 24004KT 5SM BR VCSH SCT010 BKN035


KCAE 161056Z COR 24004KT 8SM BKN150 22/22 A3011 RMK AO2 SLP191 T02220222

KCAE 161136Z 1612/1712 23004KT 6SM BR SCT025 BKN150
  FM161400 26005KT P6SM SCT035
  FM161800 27007KT P6SM VCSH BKN040
  FM170000 VRB04KT P6SM -SHRA OVC030
  FM170900 VRB03KT 5SM BR OVC004


KSSC 161126Z 23003KT 8SM FEW006 BKN220 22/21 A3011 RMK AO2A SLP196 $

TAF AMD KSSC 161138Z 1611/1713 20006KT 9999 SCT005 BKN200 QNH3009INS
  TEMPO 1611/1614 3200 BR BKN005
  BECMG 1613/1614 VRB06KT 9999 SCT015 BKN030 QNH3007INS
  BECMG 1617/1618 21009KT 8000 -SHRA SCT030 BKN050 QNH3004INS
  BECMG 1702/1703 VRB06KT 9999 NSW SCT010 BKN060 QNH3005INS
  BECMG 1708/1709 23006KT 9999 BKN010 OVC040 QNH3007INS TX31/1620Z TN20/1710Z


KMMT 161146Z 00000KT 3SM BR SCT006 SCT050 BKN220 20/20 A3013 RMK AO2A SLP204 $

TAF AMD KMMT 161138Z 1611/1713 VRB03KT 0600 FG SCT005 BKN050 QNH3009INS
  TEMPO 1611/1616 2400 BR
  BECMG 1615/1616 VRB06KT 9999 NSW SCT015 BKN030 QNH3007INS
  BECMG 1617/1618 21009KT 8000 -SHRA SCT030 BKN050 QNH3004INS
  BECMG 1702/1703 VRB06KT 9999 NSW SCT010 BKN060 QNH3005INS
  BECMG 1708/1709 23006KT 9999 BKN010 OVC040 QNH3007INS TX31/1620Z TN20/1710Z


KMYR 161056Z 23003KT 10SM CLR 23/22 A3012 RMK AO2 SLP198 T02280222

KMYR 161133Z 1612/1712 23003KT P6SM SKC
  FM161400 26007KT P6SM BKN250
  FM161900 19008KT P6SM VCSH BKN035 BKN080
  PROB30 1623/1703 6SM -SHRA OVC025
  FM171000 24004KT 6SM BR VCSH SCT025 OVC250


KCHS 161136Z 00000KT 5SM R15/3000VP6000FT BR SCT003 BKN010 22/22 A3013 RMK AO2 VIS SW 2 T02220222

TAF COR KCHS 161140Z 1612/1712 00000KT 5SM BR SCT003 BKN010
  FM161330 26006KT P6SM SCT035
  FM162100 19005KT P6SM SCT060 BKN200
  FM170800 24005KT P6SM SCT015 BKN080


KSAV 161138Z 25005KT 1SM R10/1800V4500FT BR VV002 23/23 A3013 RMK AO2 T02280228

KSAV 161122Z 1612/1712 25003KT 1SM BR OVC002
  FM161300 26004KT 3SM BR SCT002 OVC005
  FM161345 27005KT 6SM BR BKN015
  FM161430 26007KT P6SM SCT040
  FM162100 19005KT P6SM SCT060 BKN250


KSVN 161056Z AUTO 23004KT 5/8SM R10/3000V5000FT BR CLR 23/22 A3009 RMK AO2 SLP192 T02310224 FZRANO TSNO $

TAF AMD KSVN 161027Z 1610/1710 VRB03KT 0800 FG FEW002 QNH3008INS
  BECMG 1614/1615 18006KT 9999 NSW SCT035 QNH3002INS
  BECMG 1700/1701 21004KT 8000 BR SCT020 BKN050 QNH3006INS TX31/1617Z TN21/1610Z


KDCA 161052Z 34011KT 10SM SCT130 BKN160 BKN220 13/05 A3018 RMK AO2 SLP220 T01330050

KDCA 161134Z 1612/1718 34010KT P6SM BKN200
  FM161700 30007KT P6SM BKN200
  FM162100 21006KT P6SM SCT100 BKN200
  FM170900 28005KT P6SM SCT200
  FM171300 28010KT P6SM SCT200
  FM171700 28012G22KT P6SM FEW250


KADW 161056Z AUTO 33011KT 10SM BKN130 13/05 A3016 RMK AO2 SLP219 T01280045 $

TAF AMD KADW 161030Z 1610/1715 34012KT 9999 OVC070 QNH3005INS WND VRB06KT AFT 1615
  TEMPO 1610/1613 35015G25KT
  BECMG 1623/1624 24006KT 9999 BKN020 OVC110 QNH3002INS
  BECMG 1709/1710 30009KT 9999 BKN050 QNH3002INS TX15/1621Z TN08/1709Z